createdAt,value
2018-07-20T00:02:22.494Z,101083.08
2018-07-20T00:04:53.451Z,101085.80
2018-07-20T00:07:25.577Z,101086.52
2018-07-20T00:09:56.050Z,101077.26
2018-07-20T00:12:26.519Z,101077.67
2018-07-20T00:14:56.936Z,101071.31
2018-07-20T00:17:27.344Z,101076.11
2018-07-20T00:19:58.020Z,101072.97
2018-07-20T00:22:28.313Z,101072.02
2018-07-20T00:24:58.686Z,101071.61
2018-07-20T00:27:30.144Z,101075.75
2018-07-20T00:30:00.965Z,101069.66
2018-07-20T00:32:33.435Z,101074.02
2018-07-20T00:35:05.102Z,101063.97
2018-07-20T00:37:36.587Z,101069.23
2018-07-20T00:40:08.589Z,101068.80
2018-07-20T00:42:38.941Z,101054.67
2018-07-20T00:45:15.066Z,101055.31
2018-07-20T00:47:45.632Z,101058.03
2018-07-20T00:50:21.683Z,101055.39
2018-07-20T00:52:52.311Z,101054.55
2018-07-20T00:55:22.713Z,101053.00
2018-07-20T00:57:57.257Z,101059.09
2018-07-20T01:00:29.114Z,101051.70
2018-07-20T01:03:02.652Z,101054.88
2018-07-20T01:05:36.879Z,101049.45
2018-07-20T01:08:09.466Z,101047.25
2018-07-20T01:10:43.440Z,101055.09
2018-07-20T01:13:17.428Z,101049.70
2018-07-20T01:15:49.336Z,101044.97
2018-07-20T01:18:19.796Z,101051.48
2018-07-20T01:20:50.319Z,101047.80
2018-07-20T01:23:21.103Z,101049.80
2018-07-20T01:25:52.247Z,101043.21
2018-07-20T01:28:23.420Z,101049.61
2018-07-20T01:30:54.247Z,101042.30
2018-07-20T01:33:24.822Z,101044.61
2018-07-20T01:35:55.417Z,101040.84
2018-07-20T01:38:25.586Z,101044.81
2018-07-20T01:40:55.776Z,101042.53
2018-07-20T01:43:26.897Z,101039.69
2018-07-20T01:45:59.210Z,101042.09
2018-07-20T01:48:34.911Z,101040.61
2018-07-20T01:51:06.900Z,101039.66
2018-07-20T01:53:37.720Z,101040.61
2018-07-20T01:56:14.251Z,101039.45
2018-07-20T01:58:44.728Z,101033.81
2018-07-20T02:01:16.894Z,101035.58
2018-07-20T02:03:47.310Z,101034.98
2018-07-20T02:06:19.573Z,101033.91
2018-07-20T02:08:50.218Z,101027.87
2018-07-20T02:11:21.534Z,101027.06
2018-07-20T02:13:51.893Z,101016.72
2018-07-20T02:16:23.645Z,101021.52
2018-07-20T02:18:54.283Z,101015.67
2018-07-20T02:21:25.121Z,101021.83
2018-07-20T02:23:57.204Z,101017.13
2018-07-20T02:26:27.731Z,101022.67
2018-07-20T02:28:58.539Z,101023.30
2018-07-20T02:31:29.454Z,101023.83
2018-07-20T02:34:01.943Z,101018.19
2018-07-20T02:36:33.182Z,101016.52
2018-07-20T02:39:09.904Z,101015.79
2018-07-20T02:41:40.741Z,101018.59
2018-07-20T02:44:11.947Z,101010.36
2018-07-20T02:46:42.591Z,101008.48
2018-07-20T02:49:14.972Z,101011.60
2018-07-20T02:51:46.260Z,101009.20
2018-07-20T02:54:16.593Z,101010.97
2018-07-20T02:56:50.270Z,101004.49
2018-07-20T02:59:22.208Z,101006.89
2018-07-20T03:01:53.060Z,101006.60
2018-07-20T03:04:24.351Z,101006.48
2018-07-20T03:06:55.005Z,101002.41
2018-07-20T03:09:27.251Z,101006.17
2018-07-20T03:11:57.904Z,101000.33
2018-07-20T03:14:28.578Z,101001.69
2018-07-20T03:16:59.070Z,101008.67
2018-07-20T03:19:30.722Z,101001.23
2018-07-20T03:22:02.512Z,101001.02
2018-07-20T03:24:33.442Z,100997.88
2018-07-20T03:27:04.093Z,101003.28
2018-07-20T03:29:35.116Z,101003.69
2018-07-20T03:32:07.563Z,100999.50
2018-07-20T03:34:38.590Z,100998.09
2018-07-20T03:37:09.816Z,101003.16
2018-07-20T03:39:40.395Z,100998.06
2018-07-20T03:42:10.734Z,101001.68
2018-07-20T03:44:41.349Z,100998.74
2018-07-20T03:47:13.177Z,101003.42
2018-07-20T03:49:44.009Z,100999.83
2018-07-20T03:52:15.222Z,101003.74
2018-07-20T03:54:45.994Z,100998.99
2018-07-20T03:57:16.359Z,101000.58
2018-07-20T03:59:48.079Z,100995.16
2018-07-20T04:02:20.009Z,100989.64
2018-07-20T04:04:51.298Z,100992.45
2018-07-20T04:07:22.018Z,100992.34
2018-07-20T04:09:52.750Z,100984.34
2018-07-20T04:12:23.524Z,100982.80
2018-07-20T04:15:00.743Z,100982.83
2018-07-20T04:17:44.749Z,100981.34
2018-07-20T04:20:17.625Z,100979.16
2018-07-20T04:22:59.211Z,100975.09
2018-07-20T04:25:32.129Z,100981.15
2018-07-20T04:28:03.568Z,100981.08
2018-07-20T04:30:37.077Z,100982.44
2018-07-20T04:33:07.930Z,100973.60
2018-07-20T04:35:41.520Z,100976.98
2018-07-20T04:38:12.042Z,100979.33
2018-07-20T04:40:43.324Z,100971.67
2018-07-20T04:43:13.785Z,100977.13
2018-07-20T04:45:46.086Z,100972.14
2018-07-20T04:48:18.280Z,100936.76
2018-07-20T04:50:48.836Z,100971.04
2018-07-20T04:53:21.685Z,100974.30
2018-07-20T04:55:53.500Z,100974.34
2018-07-20T04:58:23.907Z,100971.67
2018-07-20T05:00:54.565Z,100976.46
2018-07-20T05:03:26.850Z,100977.98
2018-07-20T05:05:57.885Z,100969.91
2018-07-20T05:08:28.658Z,100971.02
2018-07-20T05:10:59.033Z,100972.22
2018-07-20T05:13:30.918Z,100978.37
2018-07-20T05:16:02.675Z,100982.42
2018-07-20T05:18:33.934Z,100978.50
2018-07-20T05:21:04.298Z,100975.23
2018-07-20T05:23:40.098Z,100970.98
2018-07-20T05:26:15.561Z,100976.29
2018-07-20T05:28:50.383Z,100974.53
2018-07-20T05:31:24.088Z,100972.42
2018-07-20T05:33:59.153Z,100963.82
2018-07-20T05:36:31.662Z,100968.02
2018-07-20T05:39:02.032Z,100967.31
2018-07-20T05:41:34.662Z,100959.23
2018-07-20T05:44:17.783Z,100960.50
2018-07-20T05:46:54.595Z,100959.45
2018-07-20T05:49:30.761Z,100957.74
2018-07-20T05:52:05.635Z,100966.56
2018-07-20T05:54:37.447Z,100970.14
2018-07-20T05:57:09.383Z,100966.41
2018-07-20T05:59:42.203Z,100962.39
2018-07-20T06:02:15.005Z,100966.84
2018-07-20T06:04:46.024Z,100974.22
2018-07-20T06:07:18.703Z,100968.04
2018-07-20T06:09:53.322Z,100966.66
2018-07-20T06:12:25.821Z,100970.09
2018-07-20T06:15:00.220Z,100955.22
2018-07-20T06:17:37.863Z,100965.17
2018-07-20T06:20:16.006Z,100964.75
2018-07-20T06:22:51.986Z,100963.23
2018-07-20T06:25:24.274Z,100967.66
2018-07-20T06:27:58.464Z,100964.30
2018-07-20T06:30:41.211Z,100902.15
2018-07-20T06:33:12.742Z,100965.58
2018-07-20T06:35:45.333Z,100961.72
2018-07-20T06:38:28.783Z,100962.92
2018-07-20T06:41:02.841Z,100968.73
2018-07-20T06:43:34.590Z,100974.88
2018-07-20T06:46:06.635Z,100975.41
2018-07-20T06:48:38.388Z,100976.36
2018-07-20T06:51:10.585Z,100977.30
2018-07-20T06:53:41.707Z,100981.67
2018-07-20T06:58:55.839Z,100970.11
2018-07-20T07:01:27.212Z,100974.70
2018-07-20T07:04:21.392Z,100970.56
2018-07-20T07:06:54.359Z,100969.83
2018-07-20T07:09:28.139Z,100966.84
2018-07-20T07:12:02.759Z,100968.63
2018-07-20T07:14:34.012Z,100972.09
2018-07-20T07:17:06.013Z,100966.77
2018-07-20T07:19:36.679Z,100964.48
2018-07-20T07:22:08.789Z,100964.51
2018-07-20T07:24:41.544Z,100961.95
2018-07-20T07:27:12.200Z,100968.33
2018-07-20T07:30:07.325Z,100965.98
2018-07-20T07:32:47.482Z,100964.36
2018-07-20T07:35:26.428Z,100961.34
2018-07-20T07:38:00.946Z,100961.33
2018-07-20T07:40:35.140Z,100957.62
2018-07-20T07:43:13.304Z,100954.88
2018-07-20T07:45:47.598Z,100966.81
2018-07-20T07:48:19.817Z,100957.84
2018-07-20T07:50:50.616Z,100964.20
2018-07-20T07:53:35.147Z,100962.47
2018-07-20T07:56:07.118Z,100964.81
2018-07-20T07:58:40.491Z,100965.66
2018-07-20T08:01:12.833Z,100965.42
2018-07-20T08:03:44.874Z,100966.70
2018-07-20T08:06:25.153Z,100965.66
2018-07-20T08:09:01.496Z,100960.63
2018-07-20T08:11:43.128Z,100966.94
2018-07-20T08:14:29.798Z,100962.00
2018-07-20T08:17:05.484Z,100963.66
2018-07-20T08:19:39.305Z,100954.17
2018-07-20T08:22:16.480Z,100962.72
2018-07-20T08:25:05.898Z,100948.69
2018-07-20T08:27:36.625Z,100949.23
2018-07-20T08:30:09.573Z,100949.22
2018-07-20T08:32:42.060Z,100945.56
2018-07-20T08:35:12.891Z,100945.87
2018-07-20T08:37:43.643Z,100940.41
2018-07-20T08:40:16.427Z,100944.73
2018-07-20T08:42:49.764Z,100943.38
2018-07-20T08:45:22.483Z,100938.75
2018-07-20T08:47:53.524Z,100933.25
2018-07-20T08:50:32.605Z,100931.28
2018-07-20T08:53:08.607Z,100931.28
2018-07-20T08:55:50.491Z,100930.75
2018-07-20T09:01:14.137Z,100925.87
2018-07-20T09:03:51.533Z,100926.28
2018-07-20T09:06:24.554Z,100926.92
2018-07-20T09:09:03.641Z,100933.25
2018-07-20T09:11:34.596Z,100936.34
2018-07-20T09:16:46.303Z,100918.91
2018-07-20T09:19:17.463Z,100916.78
2018-07-20T09:21:49.200Z,100920.34
2018-07-20T09:24:21.438Z,100920.53
2018-07-20T09:26:59.998Z,100920.10
2018-07-20T09:29:38.405Z,100914.70
2018-07-20T09:32:15.985Z,100915.91
2018-07-20T09:34:49.390Z,100918.48
2018-07-20T09:37:31.333Z,100910.19
2018-07-20T09:40:12.427Z,100917.53
2018-07-20T09:42:54.383Z,100910.86
2018-07-20T09:45:34.338Z,100913.91
2018-07-20T09:48:06.432Z,100910.98
2018-07-20T09:50:42.796Z,100907.17
2018-07-20T09:53:20.416Z,100908.81
2018-07-20T09:55:55.080Z,100909.03
2018-07-20T09:58:35.724Z,100903.03
2018-07-20T10:01:07.964Z,100906.44
2018-07-20T10:03:40.805Z,100908.59
2018-07-20T10:06:15.971Z,100901.56
2018-07-20T10:08:53.097Z,100904.20
2018-07-20T10:11:28.777Z,100909.83
2018-07-20T10:14:06.609Z,100907.43
2018-07-20T10:16:39.834Z,100903.62
2018-07-20T10:19:11.299Z,100898.09
2018-07-20T10:21:47.590Z,100899.63
2018-07-20T10:24:34.363Z,100903.66
2018-07-20T10:29:46.605Z,100893.79
2018-07-20T10:32:36.289Z,100896.56
2018-07-20T10:35:14.368Z,100891.69
2018-07-20T10:37:46.586Z,100890.01
2018-07-20T10:40:20.158Z,100893.05
2018-07-20T10:42:59.466Z,100882.95
2018-07-20T10:45:39.119Z,100889.19
2018-07-20T10:48:39.496Z,100887.42
2018-07-20T10:51:14.617Z,100882.89
2018-07-20T10:53:51.427Z,100892.08
2018-07-20T10:56:23.840Z,100882.78
2018-07-20T10:58:55.903Z,100883.18
2018-07-20T11:01:27.747Z,100875.33
2018-07-20T11:04:05.449Z,100872.22
2018-07-20T11:06:48.738Z,100876.34
2018-07-20T11:09:21.345Z,100869.73
2018-07-20T11:11:55.780Z,100866.87
2018-07-20T11:14:28.562Z,100875.75
2018-07-20T11:17:02.668Z,100873.12
2018-07-20T11:19:36.917Z,100869.93
2018-07-20T11:22:22.054Z,100867.48
2018-07-20T11:26:19.258Z,100874.36
2018-07-20T11:28:55.837Z,100862.95
2018-07-20T11:31:32.941Z,100857.56
2018-07-20T11:34:06.513Z,100861.83
2018-07-20T11:36:41.497Z,100858.78
2018-07-20T11:39:18.739Z,100856.61
2018-07-20T11:44:42.889Z,100851.30
2018-07-20T11:47:17.283Z,100854.22
2018-07-20T11:49:49.748Z,100853.40
2018-07-20T11:52:37.674Z,100849.27
2018-07-20T11:55:16.786Z,100847.49
2018-07-20T11:57:48.018Z,100848.48
2018-07-20T12:00:21.376Z,100843.86
2018-07-20T12:03:02.042Z,100840.36
2018-07-20T12:05:33.857Z,100840.81
2018-07-20T12:08:08.361Z,100838.84
2018-07-20T12:10:42.932Z,100833.42
2018-07-20T12:13:14.609Z,100826.18
2018-07-20T12:15:46.528Z,100824.77
2018-07-20T12:18:20.576Z,100810.56
2018-07-20T12:20:51.708Z,100809.67
2018-07-20T12:23:27.046Z,100823.15
2018-07-20T12:26:03.327Z,100820.72
2018-07-20T12:28:39.463Z,100814.64
2018-07-20T12:31:14.657Z,100807.30
2018-07-20T12:33:58.318Z,100802.34
2018-07-20T12:36:44.748Z,100798.80
2018-07-20T12:39:35.173Z,100795.53
2018-07-20T12:42:13.889Z,100785.53
2018-07-20T12:44:47.397Z,100785.33
2018-07-20T12:47:23.311Z,100786.81
2018-07-20T12:49:54.432Z,100789.54
2018-07-20T12:52:29.765Z,100786.70
2018-07-20T12:55:12.712Z,100783.16
2018-07-20T12:57:46.729Z,100788.95
2018-07-20T13:00:32.295Z,100783.45
2018-07-20T13:03:11.434Z,100785.98
2018-07-20T13:05:48.075Z,100781.25
2018-07-20T13:08:22.394Z,100779.99
2018-07-20T13:10:58.512Z,100776.02
2018-07-20T13:13:29.910Z,100773.67
2018-07-20T13:16:00.690Z,100782.25
2018-07-20T13:18:38.508Z,100781.09
2018-07-20T13:21:11.450Z,100782.66
2018-07-20T13:23:47.810Z,100779.80
2018-07-20T13:26:21.323Z,100785.72
2018-07-20T13:28:53.275Z,100778.36
2018-07-20T13:31:24.907Z,100775.36
2018-07-20T13:33:55.720Z,100774.25
2018-07-20T13:36:27.403Z,100769.00
2018-07-20T13:39:06.227Z,100757.64
2018-07-20T13:41:38.044Z,100756.94
2018-07-20T13:44:12.676Z,100758.05
2018-07-20T13:46:46.909Z,100745.08
2018-07-20T13:49:20.776Z,100747.41
2018-07-20T13:51:56.947Z,100748.94
2018-07-20T13:54:30.401Z,100743.23
2018-07-20T13:57:01.247Z,100645.05
2018-07-20T13:59:34.410Z,100732.44
2018-07-20T14:02:10.137Z,100742.30
2018-07-20T14:04:43.241Z,100732.89
2018-07-20T14:07:23.379Z,100733.81
2018-07-20T14:09:58.683Z,100721.00
2018-07-20T14:12:37.680Z,100723.45
2018-07-20T14:15:18.981Z,100724.78
2018-07-20T14:17:56.598Z,100723.48
2018-07-20T14:20:28.500Z,100719.98
2018-07-20T14:22:59.858Z,100714.92
2018-07-20T14:25:34.263Z,100705.91
2018-07-20T14:28:06.607Z,100700.06
2018-07-20T14:33:28.996Z,100697.33
2018-07-20T14:36:02.039Z,100700.38
2018-07-20T14:38:33.458Z,100695.98
2018-07-20T14:41:06.938Z,100696.36
2018-07-20T14:43:38.425Z,100695.58
2018-07-20T14:46:11.619Z,100690.02
2018-07-20T14:48:45.602Z,100686.12
2018-07-20T14:51:19.319Z,100681.66
2018-07-20T14:53:50.794Z,100677.94
2018-07-20T14:56:24.154Z,100679.00
2018-07-20T14:58:55.452Z,100665.70
2018-07-20T15:01:35.879Z,100675.37
2018-07-20T15:04:07.955Z,100664.88
2018-07-20T15:06:40.555Z,100659.33
2018-07-20T15:09:13.355Z,100669.41
2018-07-20T15:11:48.601Z,100666.99
2018-07-20T15:16:53.837Z,100653.22
2018-07-20T15:19:34.842Z,100646.75
2018-07-20T15:22:07.921Z,100644.57
2018-07-20T15:24:46.015Z,100639.17
2018-07-20T15:30:20.601Z,100645.74
2018-07-20T15:32:56.832Z,100649.99
2018-07-20T15:35:28.233Z,100658.77
2018-07-20T15:37:59.986Z,100639.73
2018-07-20T15:40:30.511Z,100639.67
2018-07-20T15:43:10.104Z,100640.37
2018-07-20T15:45:51.882Z,100629.27
2018-07-20T15:48:14.220Z,100641.56
2018-07-20T15:50:45.464Z,100638.52
2018-07-20T15:53:43.669Z,100638.37
2018-07-20T15:55:46.858Z,100632.17
2018-07-20T15:58:18.353Z,100627.48
2018-07-20T16:00:50.773Z,100629.85
2018-07-20T16:03:28.190Z,100631.79
2018-07-20T16:06:02.572Z,100628.25
2018-07-20T16:08:35.504Z,100629.08
2018-07-20T16:11:07.957Z,100626.87
2018-07-20T16:13:49.646Z,100628.66
2018-07-20T16:16:27.234Z,100632.70
2018-07-20T16:18:57.453Z,100628.71
2018-07-20T16:21:29.716Z,100629.61
2018-07-20T16:24:00.306Z,100627.67
2018-07-20T16:26:48.874Z,100623.50
2018-07-20T16:29:19.799Z,100622.67
2018-07-20T16:31:55.630Z,100621.54
2018-07-20T16:34:31.203Z,100618.98
2018-07-20T16:37:03.313Z,100618.75
2018-07-20T16:39:36.415Z,100624.54
2018-07-20T16:42:07.624Z,100616.06
2018-07-20T16:44:44.145Z,100620.68
2018-07-20T16:47:17.442Z,100622.30
2018-07-20T16:49:49.364Z,100617.67
2018-07-20T16:52:26.967Z,100616.78
2018-07-20T16:54:58.190Z,100612.59
2018-07-20T16:57:33.132Z,100604.88
2018-07-20T17:00:08.443Z,100602.54
2018-07-20T17:03:00.285Z,100600.92
2018-07-20T17:05:32.809Z,100596.59
2018-07-20T17:08:29.709Z,100592.78
2018-07-20T17:11:15.354Z,100588.20
2018-07-20T17:13:51.626Z,100587.48
2018-07-20T17:16:31.878Z,100580.03
2018-07-20T17:19:05.900Z,100582.00
2018-07-20T17:21:37.648Z,100576.02
2018-07-20T17:24:10.522Z,100576.66
2018-07-20T17:26:47.204Z,100573.89
2018-07-20T17:29:21.303Z,100583.58
2018-07-20T17:31:54.915Z,100583.88
2018-07-20T17:34:26.743Z,100589.95
2018-07-20T17:36:56.992Z,100583.92
2018-07-20T17:39:27.406Z,100585.58
2018-07-20T17:41:58.405Z,100589.74
2018-07-20T17:44:30.365Z,100594.98
2018-07-20T17:47:04.596Z,100587.01
2018-07-20T17:49:38.386Z,100592.52
2018-07-20T17:52:09.686Z,100599.13
2018-07-20T17:54:41.292Z,100591.70
2018-07-20T17:57:14.751Z,100599.95
2018-07-20T17:59:46.036Z,100594.73
2018-07-20T18:02:17.513Z,100598.84
2018-07-20T18:04:50.399Z,100591.69
2018-07-20T18:07:22.378Z,100597.75
2018-07-20T18:09:53.451Z,100592.77
2018-07-20T18:12:24.748Z,100590.80
2018-07-20T18:14:56.073Z,100588.08
2018-07-20T18:17:29.409Z,100592.73
2018-07-20T18:20:00.327Z,100591.61
2018-07-20T18:22:32.519Z,100590.23
2018-07-20T18:25:05.039Z,100595.75
2018-07-20T18:27:38.655Z,100599.83
2018-07-20T18:30:09.633Z,100595.34
2018-07-20T18:32:40.176Z,100585.64
2018-07-20T18:35:10.734Z,100591.96
2018-07-20T18:37:41.114Z,100599.37
2018-07-20T18:40:12.520Z,100597.44
2018-07-20T18:42:44.368Z,100605.91
2018-07-20T18:45:17.671Z,100600.31
2018-07-20T18:47:47.969Z,100609.00
2018-07-20T18:50:30.554Z,100614.23
2018-07-20T18:53:02.741Z,100612.31
2018-07-20T18:55:33.431Z,100612.31
2018-07-20T18:58:07.142Z,100609.51
2018-07-20T19:00:38.030Z,100612.83
2018-07-20T19:03:10.975Z,100612.57
2018-07-20T19:05:42.626Z,100613.36
2018-07-20T19:08:14.306Z,100612.66
2018-07-20T19:10:49.111Z,100623.47
2018-07-20T19:13:20.543Z,100620.55
2018-07-20T19:15:51.533Z,100623.70
2018-07-20T19:18:22.410Z,100629.07
2018-07-20T19:20:52.771Z,100628.62
2018-07-20T19:23:24.516Z,100628.88
2018-07-20T19:25:55.829Z,100628.88
2018-07-20T19:28:26.760Z,100631.33
2018-07-20T19:30:58.739Z,100632.11
2018-07-20T19:33:29.411Z,100624.97
2018-07-20T19:36:02.209Z,100631.09
2018-07-20T19:38:33.010Z,100641.42
2018-07-20T19:41:10.680Z,100644.38
2018-07-20T19:43:42.891Z,100653.39
2018-07-20T19:46:17.530Z,100653.86
2018-07-20T19:48:49.255Z,100655.09
2018-07-20T19:51:24.873Z,100658.73
2018-07-20T19:53:57.853Z,100668.64
2018-07-20T19:56:30.163Z,100657.49
2018-07-20T19:59:03.742Z,100657.90
2018-07-20T20:01:37.671Z,100658.27
2018-07-20T20:04:10.973Z,100670.34
2018-07-20T20:06:41.731Z,100660.69
2018-07-20T20:09:16.739Z,100666.34
2018-07-20T20:11:48.411Z,100662.97
2018-07-20T20:14:19.399Z,100658.72
2018-07-20T20:16:50.820Z,100659.13
2018-07-20T20:19:22.859Z,100651.31
2018-07-20T20:21:55.493Z,100650.07
2018-07-20T20:24:28.365Z,100650.39
2018-07-20T20:27:04.243Z,100645.89
2018-07-20T20:29:40.360Z,100645.89
2018-07-20T20:32:14.111Z,100596.02
2018-07-20T20:34:51.038Z,100639.32
2018-07-20T20:37:26.033Z,100646.17
2018-07-20T20:39:58.138Z,100639.39
2018-07-20T20:45:37.754Z,100637.44
2018-07-20T20:48:08.694Z,100637.22
2018-07-20T20:50:50.210Z,100643.20
2018-07-20T20:53:21.995Z,100643.45
2018-07-20T20:55:54.538Z,100646.05
2018-07-20T20:58:25.332Z,100641.47
2018-07-20T21:01:12.466Z,100644.44
2018-07-20T21:03:43.793Z,100641.34
2018-07-20T21:06:19.284Z,100631.91
2018-07-20T21:08:51.198Z,100632.80
2018-07-20T21:11:32.090Z,100629.80
2018-07-20T21:14:06.531Z,100626.50
2018-07-20T21:16:41.515Z,100631.88
2018-07-20T21:19:18.255Z,100632.13
2018-07-20T21:21:50.620Z,100629.52
2018-07-20T21:24:23.464Z,100626.41
2018-07-20T21:26:55.344Z,100628.75
2018-07-20T21:29:26.330Z,100628.70
2018-07-20T21:31:59.679Z,100627.91
2018-07-20T21:34:33.598Z,100622.03
2018-07-20T21:37:07.906Z,100618.47
2018-07-20T21:42:37.592Z,100612.80
2018-07-20T21:45:08.876Z,100611.49
2018-07-20T21:47:39.740Z,100610.90
2018-07-20T21:50:10.568Z,100594.02
2018-07-20T21:52:41.476Z,100623.30
2018-07-20T21:55:12.836Z,100621.20
2018-07-20T21:57:44.875Z,100620.19
2018-07-20T22:00:23.253Z,100620.37
2018-07-20T22:02:53.604Z,100614.59
2018-07-20T22:05:36.507Z,100622.38
2018-07-20T22:08:08.291Z,100620.44
2018-07-20T22:10:43.985Z,100617.43
2018-07-20T22:13:16.177Z,100617.01
2018-07-20T22:15:52.553Z,100617.61
2018-07-20T22:18:26.556Z,100616.88
2018-07-20T22:20:59.887Z,100622.42
2018-07-20T22:23:36.462Z,100623.89
2018-07-20T22:26:09.746Z,100628.19
2018-07-20T22:28:53.853Z,100626.48
2018-07-20T22:31:28.562Z,100625.09
2018-07-20T22:34:04.017Z,100626.02
2018-07-20T22:36:35.174Z,100622.86
2018-07-20T22:39:11.718Z,100623.79
2018-07-20T22:41:42.330Z,100616.93
2018-07-20T22:44:17.470Z,100609.56
2018-07-20T22:46:49.580Z,100604.94
2018-07-20T22:49:21.373Z,100609.70
2018-07-20T22:51:55.647Z,100610.71
2018-07-20T22:54:26.161Z,100615.73
2018-07-20T22:57:00.571Z,100608.07
2018-07-20T22:59:31.464Z,100609.05
2018-07-20T23:02:06.085Z,100613.69
2018-07-20T23:04:38.423Z,100612.96
2018-07-20T23:07:12.754Z,100572.78
2018-07-20T23:09:50.257Z,100616.13
2018-07-20T23:12:24.841Z,100607.11
2018-07-20T23:14:58.365Z,100601.55
2018-07-20T23:17:47.505Z,100599.31
2018-07-20T23:20:26.507Z,100601.52
2018-07-20T23:22:58.931Z,100601.25
2018-07-20T23:25:30.534Z,100604.98
2018-07-20T23:28:02.935Z,100602.03
2018-07-20T23:30:43.052Z,100600.14
2018-07-20T23:33:14.583Z,100595.94
2018-07-20T23:35:45.025Z,100603.30
2018-07-20T23:38:17.387Z,100595.98
2018-07-20T23:40:48.719Z,100601.58
2018-07-20T23:43:20.147Z,100603.21
2018-07-20T23:45:55.401Z,100596.16
2018-07-20T23:48:31.272Z,100605.34
2018-07-20T23:51:08.997Z,100601.41
2018-07-20T23:53:41.603Z,100607.25
2018-07-20T23:56:12.611Z,100604.72
2018-07-20T23:58:45.027Z,100600.38
